createdAt,value
2022-08-05T00:00:29.404Z,76.30
2022-08-05T00:02:56.833Z,76.77
2022-08-05T00:06:02.888Z,76.56
2022-08-05T00:08:35.182Z,76.71
2022-08-05T00:11:01.380Z,77.49
2022-08-05T00:13:38.816Z,77.40
2022-08-05T00:16:09.276Z,77.55
2022-08-05T00:18:38.863Z,77.69
2022-08-05T00:21:08.503Z,77.95
2022-08-05T00:23:45.850Z,77.70
2022-08-05T00:26:22.132Z,79.29
2022-08-05T00:28:49.989Z,79.10
2022-08-05T00:31:41.521Z,79.64
2022-08-05T00:34:55.465Z,78.80
2022-08-05T00:37:11.981Z,79.67
2022-08-05T00:39:57.224Z,79.54
2022-08-05T00:42:32.992Z,80.00
2022-08-05T00:45:01.162Z,79.83
2022-08-05T00:47:53.228Z,80.03
2022-08-05T00:50:15.427Z,80.04
2022-08-05T00:52:45.494Z,80.93
2022-08-05T00:55:13.961Z,80.68
2022-08-05T00:57:58.531Z,80.88
2022-08-05T01:00:27.428Z,80.60
2022-08-05T01:02:55.399Z,80.74
2022-08-05T01:05:23.888Z,80.79
2022-08-05T01:08:39.169Z,81.04
2022-08-05T01:11:33.713Z,81.17
2022-08-05T01:14:27.748Z,81.84
2022-08-05T01:17:12.519Z,82.44
2022-08-05T01:20:02.306Z,81.64
2022-08-05T01:23:14.386Z,81.84
2022-08-05T01:26:20.464Z,81.58
2022-08-05T01:29:05.005Z,81.48
2022-08-05T01:31:44.589Z,82.35
2022-08-05T01:34:27.850Z,81.74
2022-08-05T01:37:00.744Z,81.47
2022-08-05T01:39:46.003Z,82.25
2022-08-05T01:42:19.701Z,82.53
2022-08-05T01:44:54.084Z,81.98
2022-08-05T01:47:23.217Z,82.38
2022-08-05T01:50:01.641Z,82.14
2022-08-05T01:52:34.904Z,82.45
2022-08-05T01:55:05.692Z,82.55
2022-08-05T01:58:12.870Z,82.25
2022-08-05T02:00:30.107Z,82.35
2022-08-05T02:03:06.931Z,82.37
2022-08-05T02:05:57.921Z,82.98
2022-08-05T02:08:30.968Z,83.01
2022-08-05T02:11:23.964Z,82.99
2022-08-05T02:14:12.905Z,82.95
2022-08-05T02:16:52.795Z,83.35
2022-08-05T02:19:29.011Z,84.07
2022-08-05T02:22:25.919Z,84.34
2022-08-05T02:25:02.778Z,83.61
2022-08-05T02:27:58.389Z,84.13
2022-08-05T02:30:21.598Z,83.71
2022-08-05T02:32:52.838Z,84.23
2022-08-05T02:35:27.922Z,83.96
2022-08-05T02:38:02.609Z,84.76
2022-08-05T02:40:30.790Z,83.96
2022-08-05T02:42:59.800Z,83.92
2022-08-05T02:45:52.294Z,85.09
2022-08-05T02:48:17.655Z,84.93
2022-08-05T02:50:48.576Z,85.14
2022-08-05T02:53:19.614Z,85.57
2022-08-05T02:55:59.590Z,86.22
2022-08-05T02:58:28.813Z,86.00
2022-08-05T03:01:01.881Z,85.60
2022-08-05T03:03:34.142Z,85.91
2022-08-05T03:06:54.539Z,86.50
2022-08-05T03:09:06.200Z,86.60
2022-08-05T03:11:54.738Z,86.05
2022-08-05T03:14:22.431Z,86.00
2022-08-05T03:16:49.424Z,85.67
2022-08-05T03:19:33.822Z,86.05
2022-08-05T03:22:04.908Z,86.05
2022-08-05T03:24:47.187Z,85.99
2022-08-05T03:27:19.064Z,86.18
2022-08-05T03:30:08.334Z,85.35
2022-08-05T03:32:33.601Z,86.27
2022-08-05T03:35:00.937Z,86.25
2022-08-05T03:37:28.325Z,85.73
2022-08-05T03:39:58.817Z,86.18
2022-08-05T03:42:29.214Z,86.01
2022-08-05T03:44:59.119Z,85.94
2022-08-05T03:47:30.576Z,85.88
2022-08-05T03:50:02.673Z,85.90
2022-08-05T03:52:48.462Z,86.28
2022-08-05T03:56:05.391Z,87.01
2022-08-05T03:58:31.550Z,86.50
2022-08-05T04:01:01.967Z,86.92
2022-08-05T04:03:38.117Z,86.10
2022-08-05T04:06:08.793Z,86.76
2022-08-05T04:08:37.106Z,86.13
2022-08-05T04:11:15.762Z,86.41
2022-08-05T04:13:51.106Z,86.66
2022-08-05T04:16:24.883Z,85.93
2022-08-05T04:18:54.448Z,86.43
2022-08-05T04:22:10.359Z,86.49
2022-08-05T04:24:18.936Z,85.62
2022-08-05T04:26:47.161Z,85.36
2022-08-05T04:29:14.277Z,85.27
2022-08-05T04:31:41.502Z,84.03
2022-08-05T04:34:31.573Z,82.76
2022-08-05T04:36:57.333Z,82.75
2022-08-05T04:39:27.359Z,82.00
2022-08-05T04:41:55.450Z,81.67
2022-08-05T04:44:29.021Z,79.93
2022-08-05T04:47:09.107Z,79.51
2022-08-05T04:50:02.906Z,78.18
2022-08-05T04:52:28.435Z,76.59
2022-08-05T04:54:56.940Z,76.44
2022-08-05T04:57:28.492Z,76.74
2022-08-05T04:59:58.443Z,75.63
2022-08-05T05:02:42.010Z,73.15
2022-08-05T05:05:25.860Z,70.70
2022-08-05T05:08:01.635Z,68.41
2022-08-05T05:10:33.323Z,66.67
2022-08-05T05:13:03.630Z,65.82
2022-08-05T05:15:59.384Z,65.05
2022-08-05T05:18:31.113Z,62.97
2022-08-05T05:21:02.199Z,63.71
2022-08-05T05:23:39.041Z,62.27
2022-08-05T05:26:19.054Z,61.67
2022-08-05T05:28:46.457Z,59.36
2022-08-05T05:31:13.755Z,58.44
2022-08-05T05:33:43.394Z,58.36
2022-08-05T05:36:28.569Z,55.61
2022-08-05T05:38:57.538Z,55.07
2022-08-05T05:41:24.841Z,52.77
2022-08-05T05:43:56.892Z,52.62
2022-08-05T05:46:25.811Z,51.22
2022-08-05T05:48:52.774Z,51.98
2022-08-05T05:51:24.388Z,51.11
2022-08-05T05:53:59.261Z,50.20
2022-08-05T05:56:34.373Z,48.66
2022-08-05T05:59:07.742Z,48.41
2022-08-05T06:01:38.883Z,48.43
2022-08-05T06:04:14.654Z,44.78
2022-08-05T06:06:47.291Z,44.38
2022-08-05T06:09:17.739Z,44.03
2022-08-05T06:12:01.958Z,43.74
2022-08-05T06:14:34.803Z,42.70
2022-08-05T06:17:21.647Z,42.85
2022-08-05T06:19:57.001Z,42.79
2022-08-05T06:22:29.115Z,42.14
2022-08-05T06:24:56.489Z,41.21
2022-08-05T06:28:10.412Z,41.84
2022-08-05T06:30:16.931Z,42.39
2022-08-05T06:32:47.266Z,41.73
2022-08-05T06:35:21.682Z,42.31
2022-08-05T06:38:08.318Z,40.56
2022-08-05T06:40:38.235Z,41.53
2022-08-05T06:43:58.694Z,42.92
2022-08-05T06:46:04.065Z,39.39
2022-08-05T06:48:50.113Z,40.08
2022-08-05T06:51:29.801Z,40.07
2022-08-05T06:54:03.428Z,39.59
2022-08-05T06:56:34.155Z,38.81
2022-08-05T06:59:08.402Z,38.87
2022-08-05T07:01:36.653Z,38.74
2022-08-05T07:04:04.051Z,38.73
2022-08-05T07:06:31.957Z,37.97
2022-08-05T07:09:03.757Z,37.91
2022-08-05T07:11:31.688Z,38.46
2022-08-05T07:14:29.261Z,38.13
2022-08-05T07:18:02.049Z,39.14
2022-08-05T07:22:38.196Z,37.89
2022-08-05T07:25:23.449Z,38.17
2022-08-05T07:27:58.772Z,36.70
2022-08-05T07:30:34.437Z,37.91
2022-08-05T07:33:05.366Z,37.95
2022-08-05T07:36:04.333Z,37.05
2022-08-05T07:38:33.803Z,35.64
2022-08-05T07:41:35.093Z,34.48
2022-08-05T07:43:59.274Z,35.37
2022-08-05T07:46:27.522Z,36.18
2022-08-05T07:49:02.943Z,35.22
2022-08-05T07:51:36.685Z,34.72
2022-08-05T07:54:06.306Z,34.04
2022-08-05T07:57:02.739Z,34.60
2022-08-05T07:59:37.996Z,34.45
2022-08-05T08:02:15.820Z,33.22
2022-08-05T08:04:45.978Z,32.74
2022-08-05T08:07:13.936Z,32.69
2022-08-05T08:09:42.169Z,33.69
2022-08-05T08:12:20.239Z,32.83
2022-08-05T08:14:56.385Z,32.44
2022-08-05T08:17:23.978Z,33.48
2022-08-05T08:20:21.107Z,32.89
2022-08-05T08:22:42.048Z,31.62
2022-08-05T08:25:16.137Z,31.68
2022-08-05T08:27:47.471Z,33.07
2022-08-05T08:30:32.868Z,31.10
2022-08-05T08:33:13.753Z,31.48
2022-08-05T08:35:53.950Z,31.05
2022-08-05T08:38:35.425Z,32.23
2022-08-05T08:41:08.658Z,31.52
2022-08-05T08:45:20.550Z,30.79
2022-08-05T08:46:27.664Z,31.72
2022-08-05T08:49:06.255Z,32.51
2022-08-05T08:52:02.955Z,31.92
2022-08-05T08:54:33.832Z,31.95
2022-08-05T08:57:11.246Z,31.07
2022-08-05T08:59:41.813Z,30.87
2022-08-05T09:02:16.570Z,30.56
2022-08-05T09:04:58.117Z,31.23
2022-08-05T09:07:39.710Z,29.65
2022-08-05T09:10:22.316Z,29.30
2022-08-05T09:12:55.931Z,30.43
2022-08-05T09:15:23.664Z,29.31
2022-08-05T09:17:52.925Z,29.80
2022-08-05T09:20:37.462Z,31.42
2022-08-05T09:23:21.492Z,29.38
2022-08-05T09:26:06.706Z,29.00
2022-08-05T09:28:41.491Z,29.52
2022-08-05T09:32:39.417Z,29.98
2022-08-05T09:34:07.661Z,29.61
2022-08-05T09:36:54.821Z,30.22
2022-08-05T09:39:39.306Z,30.05
2022-08-05T09:42:17.319Z,31.38
2022-08-05T09:44:56.079Z,30.94
2022-08-05T09:47:35.213Z,31.55
2022-08-05T09:50:18.193Z,32.07
2022-08-05T09:53:01.657Z,32.72
2022-08-05T09:55:58.488Z,32.37
2022-08-05T09:58:23.923Z,32.48
2022-08-05T10:01:14.738Z,31.38
2022-08-05T10:04:00.569Z,31.50
2022-08-05T10:06:31.281Z,29.86
2022-08-05T10:09:27.748Z,31.50
2022-08-05T10:12:30.643Z,31.53
2022-08-05T10:15:17.119Z,30.75
2022-08-05T10:17:54.526Z,31.81
2022-08-05T10:20:25.760Z,31.78
2022-08-05T10:22:53.440Z,31.86
2022-08-05T10:25:20.569Z,31.94
2022-08-05T10:28:13.129Z,30.82
2022-08-05T10:32:47.137Z,30.27
2022-08-05T10:33:28.775Z,28.43
2022-08-05T10:35:59.649Z,29.57
2022-08-05T10:38:33.090Z,28.53
2022-08-05T10:41:23.458Z,29.42
2022-08-05T10:43:56.960Z,26.90
2022-08-05T10:46:51.051Z,27.94
2022-08-05T10:49:27.618Z,28.23
2022-08-05T10:52:05.589Z,27.14
2022-08-05T10:54:58.243Z,26.41
2022-08-05T10:57:30.825Z,26.17
2022-08-05T11:00:18.549Z,26.82
2022-08-05T11:03:23.701Z,26.24
2022-08-05T11:06:15.734Z,27.29
2022-08-05T11:09:16.638Z,28.35
2022-08-05T11:11:53.180Z,28.86
2022-08-05T11:15:11.680Z,28.60
2022-08-05T11:17:57.055Z,27.06
2022-08-05T11:20:38.964Z,27.71
2022-08-05T11:23:33.351Z,26.26
2022-08-05T11:26:28.311Z,25.55
2022-08-05T11:28:56.816Z,26.65
2022-08-05T11:31:57.433Z,26.66
2022-08-05T11:34:18.053Z,27.05
2022-08-05T11:36:52.591Z,26.55
2022-08-05T11:40:00.195Z,25.72
2022-08-05T11:42:37.809Z,26.10
2022-08-05T11:45:14.369Z,26.76
2022-08-05T11:47:54.675Z,29.01
2022-08-05T11:50:22.142Z,29.16
2022-08-05T11:52:52.064Z,29.94
2022-08-05T11:55:21.688Z,29.28
2022-08-05T11:58:09.444Z,29.56
2022-08-05T12:00:41.239Z,29.62
2022-08-05T12:03:31.742Z,28.64
2022-08-05T12:06:02.255Z,29.01
2022-08-05T12:08:31.705Z,29.22
2022-08-05T12:11:05.629Z,29.17
2022-08-05T12:13:48.648Z,28.88
2022-08-05T12:16:19.573Z,28.93
2022-08-05T12:18:49.449Z,28.28
2022-08-05T12:21:29.868Z,29.01
2022-08-05T12:24:09.281Z,28.24
2022-08-05T12:26:44.150Z,28.91
2022-08-05T12:29:18.023Z,30.01
2022-08-05T12:31:55.629Z,30.71
2022-08-05T12:34:43.727Z,30.42
2022-08-05T12:37:17.330Z,29.31
2022-08-05T12:40:03.128Z,28.53
2022-08-05T12:42:31.598Z,28.64
2022-08-05T12:45:08.899Z,27.84
2022-08-05T12:47:37.860Z,27.09
2022-08-05T12:50:19.833Z,28.28
2022-08-05T12:53:00.162Z,29.21
2022-08-05T12:55:32.934Z,29.69
2022-08-05T12:58:38.553Z,29.93
2022-08-05T13:02:00.628Z,30.05
2022-08-05T13:03:42.109Z,31.47
2022-08-05T13:06:16.947Z,31.17
2022-08-05T13:08:52.283Z,31.99
2022-08-05T13:12:02.258Z,31.71
2022-08-05T13:14:24.909Z,31.19
2022-08-05T13:17:11.375Z,31.97
2022-08-05T13:19:52.433Z,31.85
2022-08-05T13:22:28.363Z,30.17
2022-08-05T13:24:58.212Z,29.83
2022-08-05T13:27:41.224Z,29.16
2022-08-05T13:30:34.220Z,28.64
2022-08-05T13:33:01.244Z,29.08
2022-08-05T13:35:43.204Z,29.26
2022-08-05T13:38:28.097Z,27.91
2022-08-05T13:40:59.335Z,28.71
2022-08-05T13:43:43.426Z,28.54
2022-08-05T13:46:14.105Z,28.83
2022-08-05T13:48:57.826Z,28.43
2022-08-05T13:51:36.557Z,28.44
2022-08-05T13:54:12.710Z,28.10
2022-08-05T13:56:45.548Z,28.29
2022-08-05T13:59:24.167Z,27.65
2022-08-05T14:01:58.586Z,29.30
2022-08-05T14:04:54.813Z,28.88
2022-08-05T14:08:00.611Z,30.19
2022-08-05T14:10:18.973Z,30.23
2022-08-05T14:12:55.953Z,30.12
2022-08-05T14:16:08.603Z,30.03
2022-08-05T14:18:17.350Z,29.16
2022-08-05T14:20:54.534Z,29.08
2022-08-05T14:23:25.573Z,28.39
2022-08-05T14:25:58.867Z,28.10
2022-08-05T14:28:29.820Z,28.51
2022-08-05T14:30:58.481Z,28.48
2022-08-05T14:33:25.721Z,28.44
2022-08-05T14:35:54.358Z,29.39
2022-08-05T14:38:33.212Z,30.29
2022-08-05T14:41:07.203Z,29.50
2022-08-05T14:44:02.083Z,29.26
2022-08-05T14:46:29.094Z,29.20
2022-08-05T14:49:06.745Z,29.67
2022-08-05T14:51:43.019Z,30.11
2022-08-05T14:54:28.599Z,29.31
2022-08-05T14:56:57.688Z,28.93
2022-08-05T14:59:25.424Z,28.71
2022-08-05T15:01:57.056Z,29.29
2022-08-05T15:04:27.387Z,29.20
2022-08-05T15:06:56.655Z,29.57
2022-08-05T15:09:51.555Z,29.34
2022-08-05T15:12:16.375Z,29.54
2022-08-05T15:14:54.709Z,29.55
2022-08-05T15:17:45.680Z,29.43
2022-08-05T15:20:18.991Z,28.58
2022-08-05T15:22:54.081Z,28.54
2022-08-05T15:25:23.461Z,28.69
2022-08-05T15:28:13.317Z,29.77
2022-08-05T15:30:43.632Z,30.61
2022-08-05T15:33:13.102Z,30.07
2022-08-05T15:36:00.254Z,29.84
2022-08-05T15:38:35.543Z,29.22
2022-08-05T15:41:20.730Z,28.86
2022-08-05T15:43:50.594Z,29.36
2022-08-05T15:46:20.174Z,29.54
2022-08-05T15:48:52.493Z,28.19
2022-08-05T15:52:12.646Z,29.73
2022-08-05T15:54:17.274Z,28.91
2022-08-05T15:56:44.353Z,29.27
2022-08-05T15:59:22.063Z,30.19
2022-08-05T16:01:52.698Z,29.77
2022-08-05T16:04:25.663Z,29.85
2022-08-05T16:06:55.758Z,30.59
2022-08-05T16:09:24.087Z,30.76
2022-08-05T16:11:53.148Z,31.49
2022-08-05T16:14:21.596Z,30.91
2022-08-05T16:16:50.008Z,31.41
2022-08-05T16:19:18.829Z,31.66
2022-08-05T16:22:01.195Z,31.14
2022-08-05T16:24:39.910Z,32.40
2022-08-05T16:27:09.674Z,31.98
2022-08-05T16:29:47.497Z,32.34
2022-08-05T16:32:28.715Z,32.30
2022-08-05T16:34:57.110Z,33.77
2022-08-05T16:38:15.047Z,33.40
2022-08-05T16:40:24.934Z,33.70
2022-08-05T16:42:53.695Z,33.98
2022-08-05T16:46:04.278Z,33.62
2022-08-05T16:48:07.749Z,34.13
2022-08-05T16:50:38.679Z,34.55
2022-08-05T16:53:12.031Z,34.34
2022-08-05T16:55:46.509Z,35.17
2022-08-05T16:58:14.542Z,36.04
2022-08-05T17:00:48.124Z,35.13
2022-08-05T17:03:20.245Z,35.71
2022-08-05T17:05:53.676Z,36.62
2022-08-05T17:08:33.621Z,37.21
2022-08-05T17:11:04.227Z,37.56
2022-08-05T17:13:37.428Z,38.42
2022-08-05T17:16:29.948Z,38.91
2022-08-05T17:18:55.789Z,39.55
2022-08-05T17:21:23.780Z,41.41
2022-08-05T17:24:04.616Z,42.33
2022-08-05T17:26:36.374Z,43.53
2022-08-05T17:29:07.429Z,43.61
2022-08-05T17:31:57.082Z,45.33
2022-08-05T17:34:29.704Z,45.65
2022-08-05T17:36:59.300Z,45.74
2022-08-05T17:39:33.574Z,46.74
2022-08-05T17:42:17.860Z,46.76
2022-08-05T17:44:50.230Z,47.54
2022-08-05T17:47:22.705Z,47.76
2022-08-05T17:50:04.205Z,48.17
2022-08-05T17:52:53.419Z,49.44
2022-08-05T17:55:34.490Z,49.65
2022-08-05T17:58:07.737Z,50.22
2022-08-05T18:00:40.896Z,50.64
2022-08-05T18:03:28.195Z,51.13
2022-08-05T18:06:04.969Z,51.31
2022-08-05T18:08:34.249Z,51.80
2022-08-05T18:11:03.277Z,52.21
2022-08-05T18:13:36.728Z,52.46
2022-08-05T18:16:13.427Z,53.10
2022-08-05T18:18:41.549Z,53.19
2022-08-05T18:21:19.511Z,53.49
2022-08-05T18:23:48.372Z,54.18
2022-08-05T18:26:18.687Z,55.01
2022-08-05T18:28:46.422Z,55.43
2022-08-05T18:31:15.746Z,55.63
2022-08-05T18:33:47.075Z,56.04
2022-08-05T18:36:17.183Z,56.38
2022-08-05T18:38:46.639Z,56.83
2022-08-05T18:41:56.503Z,57.38
2022-08-05T18:44:06.629Z,57.17
2022-08-05T18:46:35.242Z,57.55
2022-08-05T18:49:21.399Z,57.80
2022-08-05T18:52:08.831Z,58.41
2022-08-05T18:54:41.313Z,59.37
2022-08-05T18:57:14.978Z,59.73
2022-08-05T19:00:02.341Z,59.74
2022-08-05T19:02:29.898Z,60.36
2022-08-05T19:05:03.188Z,60.68
2022-08-05T19:07:48.232Z,61.58
2022-08-05T19:10:17.193Z,61.70
2022-08-05T19:12:46.093Z,62.27
2022-08-05T19:15:57.870Z,62.29
2022-08-05T19:18:09.385Z,62.31
2022-08-05T19:20:41.449Z,62.33
2022-08-05T19:24:04.520Z,62.76
2022-08-05T19:26:01.617Z,62.95
2022-08-05T19:28:33.950Z,63.19
2022-08-05T19:31:04.826Z,63.50
2022-08-05T19:33:36.372Z,63.97
2022-08-05T19:36:06.306Z,64.60
2022-08-05T19:38:35.777Z,64.78
2022-08-05T19:41:06.830Z,64.95
2022-08-05T19:44:06.629Z,65.18
2022-08-05T19:46:29.428Z,64.93
2022-08-05T19:48:56.908Z,65.50
2022-08-05T19:52:05.301Z,66.37
2022-08-05T19:54:25.429Z,66.55
2022-08-05T19:56:55.985Z,66.17
2022-08-05T19:59:54.711Z,66.77
2022-08-05T20:02:11.010Z,67.08
2022-08-05T20:04:38.101Z,67.18
2022-08-05T20:07:13.427Z,67.50
2022-08-05T20:09:53.741Z,68.16
2022-08-05T20:12:21.276Z,67.95
2022-08-05T20:14:52.392Z,67.61
2022-08-05T20:17:23.229Z,68.34
2022-08-05T20:19:56.977Z,68.53
2022-08-05T20:22:27.003Z,69.01
2022-08-05T20:24:55.851Z,68.65
2022-08-05T20:27:27.427Z,69.55
2022-08-05T20:30:28.108Z,69.72
2022-08-05T20:32:55.206Z,69.96
2022-08-05T20:35:22.581Z,70.21
2022-08-05T20:38:05.477Z,69.32
2022-08-05T20:40:35.778Z,70.12
2022-08-05T20:43:05.656Z,70.21
2022-08-05T20:45:56.168Z,70.53
2022-08-05T20:48:20.405Z,71.20
2022-08-05T20:50:47.657Z,71.05
2022-08-05T20:53:16.031Z,71.15
2022-08-05T20:56:08.708Z,72.10
2022-08-05T20:58:36.977Z,71.71
2022-08-05T21:01:04.529Z,72.55
2022-08-05T21:03:34.494Z,72.68
2022-08-05T21:06:02.137Z,72.92
2022-08-05T21:08:42.434Z,72.71
2022-08-05T21:11:12.874Z,72.68
2022-08-05T21:13:59.706Z,72.66
2022-08-05T21:16:29.713Z,72.75
2022-08-05T21:19:00.946Z,72.91
2022-08-05T21:21:43.689Z,73.41
2022-08-05T21:24:13.547Z,73.25
2022-08-05T21:26:47.179Z,72.78
2022-08-05T21:29:23.459Z,73.47
2022-08-05T21:31:56.516Z,73.61
2022-08-05T21:34:25.184Z,73.86
2022-08-05T21:36:55.605Z,74.09
2022-08-05T21:39:26.888Z,74.51
2022-08-05T21:42:01.887Z,73.91
2022-08-05T21:44:31.094Z,74.76
2022-08-05T21:46:59.936Z,74.83
2022-08-05T21:50:00.007Z,74.74
2022-08-05T21:52:22.105Z,74.83
2022-08-05T21:54:54.958Z,75.39
2022-08-05T21:57:31.611Z,75.66
2022-08-05T22:00:06.070Z,75.80
2022-08-05T22:02:34.927Z,76.52
2022-08-05T22:05:02.374Z,76.12
2022-08-05T22:07:39.889Z,75.89
2022-08-05T22:10:27.056Z,76.57
2022-08-05T22:12:57.280Z,76.78
2022-08-05T22:16:02.431Z,76.59
2022-08-05T22:18:13.364Z,76.92
2022-08-05T22:20:44.126Z,77.09
2022-08-05T22:24:02.476Z,77.38
2022-08-05T22:26:35.299Z,77.20
2022-08-05T22:29:06.372Z,77.34
2022-08-05T22:31:45.030Z,77.43
2022-08-05T22:34:25.462Z,77.83
2022-08-05T22:36:58.416Z,77.46
2022-08-05T22:39:32.527Z,77.88
2022-08-05T22:42:09.306Z,78.16
2022-08-05T22:44:39.115Z,78.54
2022-08-05T22:47:06.542Z,78.34
2022-08-05T22:50:19.326Z,78.46
2022-08-05T22:52:30.319Z,78.22
2022-08-05T22:55:01.516Z,79.48
2022-08-05T22:57:36.247Z,79.32
2022-08-05T23:00:07.868Z,79.14
2022-08-05T23:02:46.615Z,79.23
2022-08-05T23:05:18.557Z,79.64
2022-08-05T23:07:48.586Z,79.57
2022-08-05T23:10:19.679Z,79.55
2022-08-05T23:12:48.048Z,79.41
2022-08-05T23:15:19.023Z,79.50
2022-08-05T23:18:01.797Z,79.57
2022-08-05T23:20:32.115Z,79.74
2022-08-05T23:22:59.714Z,79.78
2022-08-05T23:25:51.725Z,79.69
2022-08-05T23:28:15.761Z,79.46
2022-08-05T23:30:53.470Z,79.55
2022-08-05T23:33:26.340Z,79.76
2022-08-05T23:36:10.588Z,80.09
2022-08-05T23:38:38.001Z,80.35
2022-08-05T23:41:05.140Z,80.17
2022-08-05T23:44:03.617Z,80.53
2022-08-05T23:46:21.989Z,80.67
2022-08-05T23:49:00.699Z,81.50
2022-08-05T23:51:55.446Z,81.61
2022-08-05T23:54:26.325Z,81.86
2022-08-05T23:57:03.994Z,81.79
